Time;durP1;ratioP1;P1;durP2;ratioP2;P2;SDS_P1;SDS_P2;PMS_P1;PMS_P2;Temp;Humidity;BMP_temperature;BMP_pressure;BME280_temperature;BME280_humidity;BME280_pressure;Samples;Min_cycle;Max_cycle;Signal;HPM_P1;HPM_P2
2021/12/13 00:01:32;;;;;;;23.95;21.55;;;;;;;8.06;100.00;102541.09;5254952;28;20043;-85
2021/12/13 00:04:11;;;;;;;24.85;22.35;;;;;;;8.45;100.00;102583.53;5254360;28;20048;-82
2021/12/13 00:06:49;;;;;;;23.23;21.00;;;;;;;8.46;100.00;102584.38;5236214;28;20033;-84
2021/12/13 00:09:24;;;;;;;24.50;22.40;;;;;;;8.27;100.00;102555.47;5253869;28;20027;-83
2021/12/13 00:12:00;;;;;;;25.45;23.08;;;;;;;8.38;100.00;102569.22;5254997;28;20059;-84
2021/12/13 00:14:35;;;;;;;21.80;19.77;;;;;;;8.39;100.00;102588.88;5236460;28;20107;-85
2021/12/13 00:17:12;;;;;;;24.50;22.15;;;;;;;8.36;100.00;102574.00;5256911;28;20032;-85
2021/12/13 00:19:50;;;;;;;25.17;22.80;;;;;;;8.42;100.00;102580.41;5258716;28;20027;-84
2021/12/13 00:22:26;;;;;;;25.33;22.65;;;;;;;7.97;100.00;102526.13;5259401;28;20029;-84
2021/12/13 00:25:04;;;;;;;25.25;22.95;;;;;;;8.39;100.00;102578.13;5259554;28;20382;-85
2021/12/13 00:27:42;;;;;;;25.60;23.48;;;;;;;8.38;100.00;102584.53;5241507;28;20055;-84
2021/12/13 00:30:57;;;;;;;25.35;22.75;;;;;;;8.36;100.00;102578.53;5241118;28;20020;-84
2021/12/13 00:33:35;;;;;;;29.83;25.67;;;;;;;8.36;100.00;102584.75;5258829;28;20041;-84
2021/12/13 00:36:08;;;;;;;29.67;25.42;;;;;;;8.34;100.00;102580.59;5243249;28;20093;-85
2021/12/13 00:38:47;;;;;;;25.98;23.65;;;;;;;8.17;100.00;102563.06;5257966;28;20020;-85
2021/12/13 00:41:22;;;;;;;27.83;25.13;;;;;;;8.29;100.00;102572.25;5257092;28;20117;-85
2021/12/13 00:43:59;;;;;;;27.08;24.33;;;;;;;8.31;100.00;102578.28;5239651;28;20021;-84
2021/12/13 00:46:31;;;;;;;28.80;25.95;;;;;;;8.24;100.00;102564.78;5257520;28;20028;-83
2021/12/13 00:49:05;;;;;;;27.67;25.15;;;;;;;8.32;100.00;102583.50;5257369;28;20021;-84
2021/12/13 00:51:43;;;;;;;28.13;25.75;;;;;;;8.32;100.00;102585.31;5238962;28;20016;-84
2021/12/13 00:54:39;;;;;;;30.05;26.83;;;;;;;7.92;100.00;102528.56;5239677;28;20129;-85
2021/12/13 00:57:37;;;;;;;28.73;25.65;;;;;;;7.90;100.00;102527.09;5258522;28;20066;-84
2021/12/13 01:00:14;;;;;;;27.85;25.17;;;;;;;8.31;100.00;102583.66;5239983;28;20431;-84
2021/12/13 01:02:52;;;;;;;28.17;25.38;;;;;;;8.25;100.00;102585.28;5239779;28;20021;-84
2021/12/13 01:06:01;;;;;;;33.05;29.98;;;;;;;8.28;100.00;102576.81;5240331;28;20032;-84
2021/12/13 01:09:08;;;;;;;27.85;24.90;;;;;;;8.29;100.00;102583.00;5257962;28;20031;-84
2021/12/13 01:12:00;;;;;;;30.20;27.20;;;;;;;8.30;100.00;102580.13;5240137;28;20024;-85
2021/12/13 01:14:36;;;;;;;27.73;24.85;;;;;;;8.32;100.00;102590.69;5238931;28;20070;-83
2021/12/13 01:17:40;;;;;;;29.08;26.23;;;;;;;8.14;100.00;102569.66;5239532;28;20029;-85
2021/12/13 01:20:26;;;;;;;27.02;24.17;;;;;;;8.23;100.00;102589.19;5257413;28;20027;-84
2021/12/13 01:23:05;;;;;;;30.42;27.63;;;;;;;8.31;100.00;102597.13;5240335;28;20405;-84
2021/12/13 01:25:48;;;;;;;31.40;27.77;;;;;;;8.31;100.00;102602.50;5240365;28;20021;-85
2021/12/13 01:28:20;;;;;;;29.42;26.63;;;;;;;8.31;100.00;102592.56;5257144;28;20013;-85
2021/12/13 01:30:58;;;;;;;30.35;27.38;;;;;;;8.05;100.00;102555.56;5258107;28;20068;-84
2021/12/13 01:33:30;;;;;;;30.50;27.52;;;;;;;8.32;100.00;102593.38;5240010;28;20029;-84
2021/12/13 01:36:05;;;;;;;32.08;29.13;;;;;;;8.31;100.00;102594.41;5257756;28;20107;-84
2021/12/13 01:38:45;;;;;;;34.28;30.80;;;;;;;8.31;100.00;102592.56;5258162;28;20466;-84
2021/12/13 01:41:20;;;;;;;;;;;;;;;8.30;100.00;102595.44;5258125;28;20033;-85
2021/12/13 01:44:06;;;;;;;32.15;29.27;;;;;;;8.23;100.00;102583.81;5258357;28;19923;-84
2021/12/13 01:46:41;;;;;;;32.90;29.65;;;;;;;8.31;100.00;102592.56;5240140;28;20029;-84
2021/12/13 01:49:13;;;;;;;31.05;27.80;;;;;;;8.30;100.00;102593.59;5256826;28;20017;-84
2021/12/13 01:51:43;;;;;;;32.20;28.73;;;;;;;7.94;100.00;102534.59;5255098;28;20028;-84
2021/12/13 01:54:20;;;;;;;32.35;29.05;;;;;;;8.19;100.00;102577.16;5253981;28;20024;-84
2021/12/13 01:57:10;;;;;;;36.60;30.40;;;;;;;8.19;100.00;102571.78;5255136;28;20090;-85
2021/12/13 01:59:52;;;;;;;32.90;27.48;;;;;;;7.63;100.00;102491.97;5254363;28;20493;-84
2021/12/13 02:02:35;;;;;;;34.65;31.20;;;;;;;8.29;100.00;102600.00;5254443;28;20028;-84
2021/12/13 02:05:11;;;;;;;31.48;28.23;;;;;;;8.31;100.00;102602.50;5254015;28;20036;-84
2021/12/13 02:07:51;;;;;;;33.05;29.58;;;;;;;8.31;100.00;102602.50;5255046;28;20024;-83
2021/12/13 02:10:29;;;;;;;31.17;24.60;;;;;;;8.18;100.00;102570.94;5237089;28;20028;-84
2021/12/13 02:13:05;;;;;;;32.47;29.38;;;;;;;7.77;100.00;102509.03;5253205;28;20028;-84
2021/12/13 02:18:32;;;;;;;31.38;27.83;;;;;;;8.30;100.00;102595.44;5253696;28;20035;-84
2021/12/13 02:21:18;;;;;;;32.72;29.45;;;;;;;-141.48;100.00;69781.59;5253601;28;20020;-83
2021/12/13 02:23:50;;;;;;;31.27;28.27;;;;;;;-141.48;100.00;69781.59;5252849;28;20025;-84
2021/12/13 02:26:21;;;;;;;31.90;28.70;;;;;;;-141.48;100.00;69781.59;5253449;28;20024;-84
2021/12/13 02:29:01;;;;;;;30.85;27.83;;;;;;;-141.48;100.00;69781.59;5253493;28;20520;-84
2021/12/13 02:31:38;;;;;;;28.55;25.42;;;;;;;-141.48;100.00;69781.59;5253712;28;20025;-84
2021/12/13 02:34:14;;;;;;;31.38;28.27;;;;;;;-141.48;100.00;69781.59;5252505;28;20028;-84
2021/12/13 02:36:50;;;;;;;31.17;28.27;;;;;;;-141.48;100.00;69781.59;5252345;28;20078;-83
2021/12/13 02:39:26;;;;;;;28.02;25.13;;;;;;;-141.48;100.00;69781.59;5234410;28;20035;-84
2021/12/13 02:41:59;;;;;;;27.83;25.17;;;;;;;-141.48;100.00;69781.59;5234555;28;20028;-84
2021/12/13 02:44:38;;;;;;;29.77;26.92;;;;;;;-141.48;100.00;69781.59;5234471;28;20123;-84
2021/12/13 02:47:26;;;;;;;32.20;29.15;;;;;;;-141.48;100.00;69781.59;5253019;28;20020;-83
2021/12/13 02:49:56;;;;;;;27.73;24.80;;;;;;;-141.48;100.00;69781.59;5234826;28;20024;-84
2021/12/13 02:52:27;;;;;;;33.05;26.73;;;;;;;-141.48;100.00;69781.59;5252498;28;20026;-83
2021/12/13 02:55:05;;;;;;;28.88;25.90;;;;;;;-141.48;100.00;69781.59;5252383;28;20382;-85
2021/12/13 02:57:44;;;;;;;28.08;25.25;;;;;;;-141.48;100.00;69781.59;5252664;28;20484;-84
2021/12/13 03:00:18;;;;;;;29.95;26.83;;;;;;;-141.48;100.00;69781.59;5252746;28;20032;-84
2021/12/13 03:02:53;;;;;;;28.88;25.92;;;;;;;-141.48;100.00;69781.59;5234400;28;20020;-84
2021/12/13 03:05:31;;;;;;;28.33;25.42;;;;;;;-141.48;100.00;69781.59;5251432;28;20494;-83
2021/12/13 03:08:09;;;;;;;28.58;25.50;;;;;;;-141.48;100.00;69781.59;5233628;28;20078;-84
2021/12/13 03:10:47;;;;;;;27.30;24.27;;;;;;;-141.48;100.00;69781.59;5234189;28;20028;-83
2021/12/13 03:13:19;;;;;;;31.13;27.25;;;;;;;-141.48;100.00;69781.59;5234107;28;20241;-84
2021/12/13 03:15:58;;;;;;;25.75;23.45;;;;;;;-141.48;100.00;69781.59;5233533;28;20205;-84
2021/12/13 03:18:54;;;;;;;27.00;24.27;;;;;;;-141.48;100.00;69781.59;5251918;28;20029;-85
2021/12/13 03:21:47;;;;;;;30.55;27.45;;;;;;;-141.48;100.00;69781.59;5251261;28;20059;-84
2021/12/13 03:24:45;;;;;;;28.60;25.52;;;;;;;-141.48;100.00;69781.59;5251309;28;20024;-84
2021/12/13 03:27:37;;;;;;;34.10;25.25;;;;;;;-141.48;100.00;69781.59;5251686;28;20099;-84
2021/12/13 03:30:13;;;;;;;29.63;25.65;;;;;;;-141.48;100.00;69781.59;5251164;28;20021;-85
2021/12/13 03:32:56;;;;;;;22.48;20.27;;;;;;;-141.48;100.00;69781.59;5233437;28;20017;-83
2021/12/13 03:35:49;;;;;;;28.73;23.02;;;;;;;-141.48;100.00;69781.59;5232937;28;20029;-82
2021/12/13 03:38:29;;;;;;;27.52;24.75;;;;;;;-141.48;100.00;69781.59;5251070;28;20482;-84
2021/12/13 03:41:04;;;;;;;24.92;22.30;;;;;;;-141.48;100.00;69781.59;5251158;28;20036;-84
2021/12/13 03:43:45;;;;;;;27.77;21.85;;;;;;;-141.48;100.00;69781.59;5250965;28;20021;-84
2021/12/13 03:46:18;;;;;;;23.52;21.17;;;;;;;-141.48;100.00;69781.59;5233243;28;20401;-84
2021/12/13 03:48:52;;;;;;;25.90;20.92;;;;;;;-141.48;100.00;69781.59;5233352;28;20017;-84
2021/12/13 03:51:26;;;;;;;24.40;22.08;;;;;;;-141.48;100.00;69781.59;5251862;28;20033;-84
2021/12/13 03:53:58;;;;;;;24.05;20.17;;;;;;;-141.48;100.00;69781.59;5237337;28;20067;-83
2021/12/13 03:56:34;;;;;;;27.80;21.85;;;;;;;-141.48;100.00;69781.59;5255709;28;20032;-84
2021/12/13 03:59:22;;;;;;;27.05;21.85;;;;;;;-141.48;100.00;69781.59;5236873;28;20017;-84
2021/12/13 04:01:57;;;;;;;21.38;19.55;;;;;;;-141.48;100.00;69781.59;5255093;28;20450;-84
2021/12/13 04:04:33;;;;;;;21.85;19.55;;;;;;;-141.48;100.00;69781.59;5254281;28;20154;-84
2021/12/13 04:07:20;;;;;;;25.00;22.40;;;;;;;-141.48;100.00;69781.59;5254450;28;20432;-84
2021/12/13 04:09:55;;;;;;;22.33;20.40;;;;;;;-141.48;100.00;69781.59;5254221;28;20024;-83
2021/12/13 04:12:38;;;;;;;22.70;20.67;;;;;;;-141.48;100.00;69781.59;5254568;28;20036;-84
2021/12/13 04:15:29;;;;;;;22.38;19.25;;;;;;;-141.48;100.00;69781.59;5253953;28;20398;-83
2021/12/13 04:18:28;;;;;;;21.23;19.27;;;;;;;-141.48;100.00;69781.59;5235831;28;20021;-84
2021/12/13 04:21:05;;;;;;;22.80;20.48;;;;;;;-141.48;100.00;69781.59;5254349;28;20029;-84
2021/12/13 04:23:36;;;;;;;20.30;18.33;;;;;;;-141.48;100.00;69781.59;5235787;28;20032;-83
2021/12/13 04:26:11;;;;;;;22.25;20.30;;;;;;;-141.48;100.00;69781.59;5254091;28;20024;-84
2021/12/13 04:28:46;;;;;;;20.27;17.45;;;;;;;-141.48;100.00;69781.59;5235846;28;20017;-84
2021/12/13 04:31:20;;;;;;;21.73;19.98;;;;;;;-141.48;100.00;69781.59;5253865;28;20029;-84
2021/12/13 04:33:56;;;;;;;23.58;21.13;;;;;;;-141.48;100.00;69781.59;5253056;28;20516;-84
2021/12/13 04:36:38;;;;;;;19.90;17.85;;;;;;;-141.48;100.00;69781.59;5235044;28;20028;-83
2021/12/13 04:39:13;;;;;;;21.75;19.67;;;;;;;-141.48;100.00;69781.59;5234806;28;20509;-84
2021/12/13 04:41:45;;;;;;;20.83;18.88;;;;;;;-141.48;100.00;69781.59;5234555;28;20037;-85
2021/12/13 04:44:33;;;;;;;21.90;19.63;;;;;;;-141.48;100.00;69781.59;5236043;28;20115;-85
2021/12/13 04:47:24;;;;;;;19.98;17.95;;;;;;;-141.48;100.00;69781.59;5254587;28;20028;-84
2021/12/13 04:50:10;;;;;;;18.70;16.90;;;;;;;-141.48;100.00;69781.59;5253930;28;20032;-85
2021/12/13 04:52:44;;;;;;;18.85;16.88;;;;;;;-141.48;100.00;69781.59;5237164;28;20457;-83
2021/12/13 04:55:20;;;;;;;19.15;17.23;;;;;;;-141.48;100.00;69781.59;5254557;28;20477;-85
2021/12/13 04:57:53;;;;;;;20.17;16.95;;;;;;;-141.48;100.00;69781.59;5237750;28;20375;-84
2021/12/13 05:00:28;;;;;;;22.23;19.73;;;;;;;-141.48;100.00;69781.59;5255102;28;20029;-84
2021/12/13 05:03:01;;;;;;;18.20;16.42;;;;;;;-141.48;100.00;69781.59;5254703;28;20024;-84
2021/12/13 05:05:34;;;;;;;20.60;18.52;;;;;;;-141.48;100.00;69781.59;5303785;22;20473;-84
2021/12/13 05:08:10;;;;;;;19.25;17.40;;;;;;;-141.48;100.00;69781.59;5283136;28;20024;-83
2021/12/13 05:10:46;;;;;;;19.08;17.20;;;;;;;-141.48;100.00;69781.59;5264274;28;20077;-84
2021/12/13 05:13:19;;;;;;;26.67;17.35;;;;;;;-141.48;100.00;69781.59;5264883;28;20047;-85
2021/12/13 05:16:09;;;;;;;19.85;17.95;;;;;;;-141.48;100.00;69781.59;5281573;28;20031;-84
2021/12/13 05:18:45;;;;;;;24.52;19.58;;;;;;;-141.48;100.00;69781.59;5282602;28;20053;-85
2021/12/13 05:21:24;;;;;;;16.77;15.05;;;;;;;-141.48;100.00;69781.59;5282313;28;20048;-85
2021/12/13 05:24:02;;;;;;;19.75;18.02;;;;;;;-141.48;100.00;69781.59;5282830;28;20020;-86
2021/12/13 05:26:37;;;;;;;18.02;16.63;;;;;;;-141.48;100.00;69781.59;5282671;28;20024;-83
2021/12/13 05:29:23;;;;;;;21.67;19.48;;;;;;;-141.48;100.00;69781.59;5282095;28;20028;-84
2021/12/13 05:32:15;;;;;;;22.23;19.67;;;;;;;-141.48;100.00;69781.59;5264928;28;20027;-84
2021/12/13 05:34:52;;;;;;;18.40;16.90;;;;;;;-141.48;100.00;69781.59;5265060;28;20031;-85
2021/12/13 05:37:24;;;;;;;19.60;18.05;;;;;;;-141.48;100.00;69781.59;5263842;28;20039;-85
2021/12/13 05:40:00;;;;;;;17.55;15.98;;;;;;;-141.48;100.00;69781.59;5281222;28;20028;-85
2021/12/13 05:42:40;;;;;;;18.15;16.67;;;;;;;-141.48;100.00;69781.59;5281227;28;20038;-85
2021/12/13 05:45:15;;;;;;;15.73;14.43;;;;;;;-141.48;100.00;69781.59;5263643;28;20032;-86
2021/12/13 05:48:06;;;;;;;24.58;19.98;;;;;;;-141.48;100.00;69781.59;5261199;28;20042;-85
2021/12/13 05:50:44;;;;;;;20.40;18.60;;;;;;;-141.48;100.00;69781.59;5263631;28;20547;-87
2021/12/13 05:53:24;;;;;;;20.15;16.88;;;;;;;-141.48;100.00;69781.59;5280716;28;20020;-85
2021/12/13 05:56:07;;;;;;;20.10;18.27;;;;;;;-141.48;100.00;69781.59;5281939;28;20024;-84
2021/12/13 05:58:50;;;;;;;16.10;14.70;;;;;;;-141.48;100.00;69781.59;5281239;28;20066;-85
2021/12/13 06:01:23;;;;;;;17.35;15.57;;;;;;;-141.48;100.00;69781.59;5281855;28;20081;-85
2021/12/13 06:04:10;;;;;;;16.73;14.35;;;;;;;-141.48;100.00;69781.59;5263501;28;20401;-84
2021/12/13 06:06:47;;;;;;;19.90;18.02;;;;;;;-141.48;100.00;69781.59;5262855;28;20027;-83
2021/12/13 06:09:44;;;;;;;17.98;16.48;;;;;;;-141.48;100.00;69781.59;5280668;28;20035;-85
2021/12/13 06:12:24;;;;;;;15.52;14.13;;;;;;;-141.48;100.00;69781.59;5268279;28;20071;-84
2021/12/13 06:14:56;;;;;;;17.15;14.63;;;;;;;-141.48;100.00;69781.59;5261691;28;20117;-84
2021/12/13 06:17:30;;;;;;;17.00;15.50;;;;;;;-141.48;100.00;69781.59;5280372;28;20062;-83
2021/12/13 06:20:08;;;;;;;18.38;16.17;;;;;;;-141.48;100.00;69781.59;5262505;28;20070;-85
2021/12/13 06:22:39;;;;;;;16.13;14.48;;;;;;;-141.48;100.00;69781.59;5281188;28;20020;-86
2021/12/13 06:25:14;;;;;;;15.93;14.27;;;;;;;-141.48;100.00;69781.59;5282311;28;20085;-85
2021/12/13 06:27:56;;;;;;;17.80;16.05;;;;;;;-141.48;100.00;69781.59;5263025;28;20024;-86
2021/12/13 06:30:30;;;;;;;16.23;14.70;;;;;;;-141.48;100.00;69781.59;5262458;28;20020;-84
2021/12/13 06:33:04;;;;;;;15.50;13.93;;;;;;;-141.48;100.00;69781.59;5262139;28;20114;-84
2021/12/13 06:35:56;;;;;;;15.52;14.13;;;;;;;-141.48;100.00;69781.59;5279762;28;20028;-83
2021/12/13 06:38:35;;;;;;;16.67;14.65;;;;;;;-141.48;100.00;69781.59;5261908;28;20020;-83
2021/12/13 06:41:16;;;;;;;17.25;15.52;;;;;;;-141.48;100.00;69781.59;5280161;28;20039;-83
2021/12/13 06:43:50;;;;;;;16.38;14.82;;;;;;;-141.48;100.00;69781.59;5260673;28;20028;-82
2021/12/13 06:46:23;;;;;;;16.80;15.15;;;;;;;-141.48;100.00;69781.59;5258224;28;20028;-82
2021/12/13 06:49:09;;;;;;;19.67;18.10;;;;;;;-141.48;100.00;69781.59;5261342;28;20505;-82
2021/12/13 06:51:42;;;;;;;19.13;16.45;;;;;;;-141.48;100.00;69781.59;5279263;28;20049;-83
2021/12/13 06:54:36;;;;;;;16.27;14.40;;;;;;;-141.48;100.00;69781.59;5260976;28;20538;-83
2021/12/13 06:57:12;;;;;;;16.52;15.00;;;;;;;-141.48;100.00;69781.59;5278622;28;20039;-82
2021/12/13 06:59:56;;;;;;;17.73;16.48;;;;;;;-141.48;100.00;69781.59;5279009;28;20076;-83
2021/12/13 07:02:37;;;;;;;16.67;15.25;;;;;;;-141.48;100.00;69781.59;5278479;28;20036;-83
2021/12/13 07:05:30;;;;;;;15.45;14.02;;;;;;;-141.48;100.00;69781.59;5260030;28;20025;-83
2021/12/13 07:08:07;;;;;;;15.00;13.80;;;;;;;-141.48;100.00;69781.59;5260955;28;20100;-82
2021/12/13 07:11:12;;;;;;;15.35;13.98;;;;;;;-141.48;100.00;69781.59;5277915;28;20024;-83
2021/12/13 07:13:48;;;;;;;16.52;15.02;;;;;;;-141.48;100.00;69781.59;5278282;28;20028;-83
2021/12/13 07:16:25;;;;;;;15.60;13.05;;;;;;;-141.48;100.00;69781.59;5260958;28;20052;-84
2021/12/13 07:19:08;;;;;;;18.70;15.57;;;;;;;-141.48;100.00;69781.59;5260422;28;20031;-83
2021/12/13 07:21:47;;;;;;;16.98;15.38;;;;;;;-141.48;100.00;69781.59;5279170;28;20032;-83
2021/12/13 07:24:45;;;;;;;15.93;14.23;;;;;;;-141.48;100.00;69781.59;5261228;28;20161;-83
2021/12/13 07:27:23;;;;;;;16.08;13.13;;;;;;;-141.48;100.00;69781.59;5259031;28;20036;-82
2021/12/13 07:29:57;;;;;;;15.10;13.75;;;;;;;-141.48;100.00;69781.59;5276959;28;20103;-83
2021/12/13 07:32:31;;;;;;;14.00;12.65;;;;;;;-141.48;100.00;69781.59;5278025;28;20054;-84
2021/12/13 07:35:12;;;;;;;15.52;14.02;;;;;;;-141.48;100.00;69781.59;5278124;28;20084;-84
2021/12/13 07:37:57;;;;;;;13.88;12.65;;;;;;;-141.48;100.00;69781.59;5279166;28;20028;-83
2021/12/13 07:40:36;;;;;;;14.77;13.57;;;;;;;-141.48;100.00;69781.59;5278332;28;20095;-83
2021/12/13 07:43:06;;;;;;;11.70;10.70;;;;;;;-141.48;100.00;69781.59;5260146;28;20119;-84
2021/12/13 07:45:54;;;;;;;13.40;12.10;;;;;;;-141.48;100.00;69781.59;5275517;28;20059;-83
2021/12/13 07:48:54;;;;;;;12.10;11.07;;;;;;;-141.48;100.00;69781.59;5275693;28;20024;-82
2021/12/13 07:51:27;;;;;;;;;;;;;;;-141.48;100.00;69781.59;5276380;28;20020;-84
2021/12/13 07:53:57;;;;;;;11.07;10.07;;;;;;;-141.48;100.00;69781.59;5274645;28;19912;-84
2021/12/13 07:56:28;;;;;;;10.25;9.65;;;;;;;-141.48;100.00;69781.59;5256818;28;20035;-84
2021/12/13 07:59:21;;;;;;;13.20;11.85;;;;;;;-141.48;100.00;69781.59;5275472;28;20493;-84
2021/12/13 08:01:53;;;;;;;12.77;11.52;;;;;;;-141.48;100.00;69781.59;5274639;28;20035;-84
2021/12/13 08:04:30;;;;;;;13.57;12.52;;;;;;;-141.48;100.00;69781.59;5257208;28;20035;-83
2021/12/13 08:07:13;;;;;;;12.43;11.43;;;;;;;-141.48;100.00;69781.59;5275628;28;20370;-84
2021/12/13 08:09:48;;;;;;;12.48;11.35;;;;;;;-141.48;100.00;69781.59;5257782;28;20028;-84
2021/12/13 08:12:24;;;;;;;14.77;13.48;;;;;;;-141.48;100.00;69781.59;5257751;28;20020;-83
2021/12/13 08:15:33;;;;;;;17.75;16.40;;;;;;;-141.48;100.00;69781.59;5275631;28;20151;-83
2021/12/13 08:18:09;;;;;;;14.68;13.57;;;;;;;-141.48;100.00;69781.59;5257621;28;20473;-83
2021/12/13 08:20:53;;;;;;;13.70;12.70;;;;;;;-141.48;100.00;69781.59;5276007;28;20024;-84
2021/12/13 08:23:28;;;;;;;12.45;11.38;;;;;;;-141.48;100.00;69781.59;5258148;28;20024;-83
2021/12/13 08:26:04;;;;;;;10.20;9.40;;;;;;;-141.48;100.00;69781.59;5256463;28;20094;-83
2021/12/13 08:28:37;;;;;;;10.52;9.63;;;;;;;-141.48;100.00;69781.59;5275177;28;20112;-84
2021/12/13 08:31:11;;;;;;;11.25;10.43;;;;;;;-141.48;100.00;69781.59;5275209;28;20508;-84
2021/12/13 08:33:47;;;;;;;13.45;11.93;;;;;;;-141.48;100.00;69781.59;5274918;28;20032;-84
2021/12/13 08:36:28;;;;;;;11.32;10.32;;;;;;;-141.48;100.00;69781.59;5274919;28;20031;-83
2021/12/13 08:39:10;;;;;;;10.90;9.90;;;;;;;-141.48;100.00;69781.59;5263565;28;20027;-83
2021/12/13 08:41:47;;;;;;;11.05;10.02;;;;;;;-141.48;100.00;69781.59;5264414;28;20039;-84
2021/12/13 08:44:26;;;;;;;9.82;9.13;;;;;;;-141.48;100.00;69781.59;5281903;28;20038;-83
2021/12/13 08:47:01;;;;;;;10.35;9.65;;;;;;;-141.48;100.00;69781.59;5264165;28;20027;-84
2021/12/13 08:49:40;;;;;;;9.82;9.02;;;;;;;-141.48;100.00;69781.59;5282728;28;20095;-84
2021/12/13 08:52:13;;;;;;;9.40;8.60;;;;;;;-141.48;100.00;69781.59;5282039;28;20034;-85
2021/12/13 08:55:03;;;;;;;9.95;8.25;;;;;;;-141.48;100.00;69781.59;5281831;28;20091;-84
2021/12/13 08:57:51;;;;;;;11.07;10.18;;;;;;;-141.48;100.00;69781.59;5264257;28;20024;-84
2021/12/13 09:00:35;;;;;;;11.73;9.30;;;;;;;-141.48;100.00;69781.59;5282114;28;20016;-84
2021/12/13 09:03:24;;;;;;;11.25;10.32;;;;;;;-141.48;100.00;69781.59;5281456;28;20047;-84
2021/12/13 09:06:00;;;;;;;10.30;9.48;;;;;;;-141.48;100.00;69781.59;5281674;28;20048;-84
2021/12/13 09:08:55;;;;;;;9.48;8.75;;;;;;;-141.48;100.00;69781.59;5264535;28;20016;-84
2021/12/13 09:11:30;;;;;;;9.45;8.65;;;;;;;-141.48;100.00;69781.59;5281951;28;20050;-84
2021/12/13 09:14:16;;;;;;;8.68;8.07;;;;;;;-141.48;100.00;69781.59;5278754;28;20050;-84
2021/12/13 09:17:09;;;;;;;10.20;9.30;;;;;;;-141.48;100.00;69781.59;5279117;28;20103;-84
2021/12/13 09:19:47;;;;;;;8.65;7.93;;;;;;;-141.48;100.00;69781.59;5261274;28;20136;-84
2021/12/13 09:22:30;;;;;;;9.55;8.82;;;;;;;-141.48;100.00;69781.59;5261127;28;20059;-84
2021/12/13 09:25:06;;;;;;;10.07;9.38;;;;;;;-141.48;100.00;69781.59;5260532;28;20035;-84
2021/12/13 09:27:52;;;;;;;11.30;9.27;;;;;;;-141.48;100.00;69781.59;5262065;28;20035;-82
2021/12/13 09:30:33;;;;;;;7.47;6.88;;;;;;;-141.48;100.00;69781.59;5279885;28;20066;-84
2021/12/13 09:33:17;;;;;;;8.85;8.23;;;;;;;-141.48;100.00;69781.59;5276644;28;20024;-83
2021/12/13 09:36:09;;;;;;;9.07;8.18;;;;;;;-141.48;100.00;69781.59;5277190;28;20024;-84
2021/12/13 09:39:05;;;;;;;8.07;7.57;;;;;;;-141.48;100.00;69781.59;5277263;28;20474;-84
2021/12/13 09:41:58;;;;;;;8.73;8.10;;;;;;;-141.48;100.00;69781.59;5277916;28;20111;-84
2021/12/13 09:44:40;;;;;;;9.95;8.68;;;;;;;-141.48;100.00;69781.59;5278007;28;20686;-84
2021/12/13 09:47:15;;;;;;;9.60;8.90;;;;;;;-141.48;100.00;69781.59;5260408;28;20035;-84
2021/12/13 09:50:03;;;;;;;9.43;8.50;;;;;;;-141.48;100.00;69781.59;5277248;28;20024;-84
2021/12/13 09:53:05;;;;;;;10.65;9.73;;;;;;;-141.48;100.00;69781.59;5258899;28;20067;-83
2021/12/13 09:55:44;;;;;;;12.23;11.00;;;;;;;-141.48;100.00;69781.59;5258104;28;20554;-84
2021/12/13 09:58:21;;;;;;;12.90;11.80;;;;;;;-141.48;100.00;69781.59;5278058;28;20016;-84
2021/12/13 10:01:08;;;;;;;11.40;9.85;;;;;;;-141.48;100.00;69781.59;5277390;28;20087;-84
2021/12/13 10:04:03;;;;;;;8.55;7.55;;;;;;;-141.48;100.00;69781.59;5257339;28;20031;-84
2021/12/13 10:06:40;;;;;;;10.98;6.82;;;;;;;-141.48;100.00;69781.59;5275706;28;20032;-84
2021/12/13 10:09:19;;;;;;;8.38;7.78;;;;;;;-141.48;100.00;69781.59;5276732;28;20020;-84
2021/12/13 10:12:06;;;;;;;6.50;5.97;;;;;;;-141.48;100.00;69781.59;5276031;28;20731;-83
2021/12/13 10:14:47;;;;;;;7.78;7.20;;;;;;;-141.48;100.00;69781.59;5258388;28;20024;-84
2021/12/13 10:17:20;;;;;;;13.13;9.00;;;;;;;-141.48;100.00;69781.59;5275092;28;20083;-84
2021/12/13 10:19:54;;;;;;;12.82;7.95;;;;;;;-141.48;100.00;69781.59;5257055;28;20038;-83
2021/12/13 10:22:30;;;;;;;11.45;8.40;;;;;;;-141.48;100.00;69781.59;5275580;28;20043;-84
2021/12/13 10:25:03;;;;;;;6.90;6.47;;;;;;;-141.48;100.00;69781.59;5257857;28;20434;-83
2021/12/13 10:27:34;;;;;;;11.63;8.07;;;;;;;-141.48;100.00;69781.59;5276517;28;20031;-84
2021/12/13 10:30:09;;;;;;;8.95;6.80;;;;;;;-141.48;100.00;69781.59;5275964;28;20020;-84
2021/12/13 10:32:41;;;;;;;8.35;7.40;;;;;;;-141.48;100.00;69781.59;5259630;28;20046;-85
2021/12/13 10:35:17;;;;;;;5.57;5.22;;;;;;;-141.48;100.00;69781.59;5259096;28;20024;-84
2021/12/13 10:37:52;;;;;;;6.50;5.97;;;;;;;-141.48;100.00;69781.59;5254246;28;20474;-84
2021/12/13 10:40:28;;;;;;;6.63;6.10;;;;;;;-141.48;100.00;69781.59;5272515;28;20101;-83
2021/12/13 10:43:02;;;;;;;6.25;5.85;;;;;;;-141.48;100.00;69781.59;5272307;28;20428;-83
2021/12/13 10:45:39;;;;;;;7.57;7.07;;;;;;;-141.48;100.00;69781.59;5255438;28;20031;-83
2021/12/13 10:48:13;;;;;;;6.57;6.03;;;;;;;-141.48;100.00;69781.59;5272907;28;20023;-83
2021/12/13 10:50:46;;;;;;;5.60;5.10;;;;;;;-141.48;100.00;69781.59;5272327;28;20024;-84
2021/12/13 10:53:25;;;;;;;6.78;6.47;;;;;;;-141.48;100.00;69781.59;5253678;28;20024;-84
2021/12/13 10:56:01;;;;;;;7.10;6.47;;;;;;;-141.48;100.00;69781.59;5271438;28;20028;-84
2021/12/13 10:58:39;;;;;;;8.45;7.53;;;;;;;-141.48;100.00;69781.59;5253470;28;20024;-83
2021/12/13 11:01:18;;;;;;;6.80;6.40;;;;;;;-141.48;100.00;69781.59;5253242;28;20093;-84
2021/12/13 11:06:29;;;;;;;5.72;5.32;;;;;;;-141.48;100.00;69781.59;5277255;22;20495;-58
2021/12/13 11:09:00;;;;;;;12.45;5.78;;;;;;;-141.48;100.00;69781.59;5248665;28;20035;-61
2021/12/13 11:11:42;;;;;;;5.85;5.45;;;;;;;-141.48;100.00;69781.59;5248621;28;20460;-60
2021/12/13 11:14:20;;;;;;;6.93;6.40;;;;;;;-141.48;100.00;69781.59;5248455;28;20024;-56
2021/12/13 11:16:58;;;;;;;6.65;6.15;;;;;;;-141.48;100.00;69781.59;5248902;28;20187;-61
2021/12/13 11:19:34;;;;;;;6.00;5.57;;;;;;;-141.48;100.00;69781.59;5248959;28;20023;-61
2021/12/13 11:22:11;;;;;;;5.03;4.63;;;;;;;-141.48;100.00;69781.59;5248313;28;20028;-57
2021/12/13 11:24:47;;;;;;;5.80;5.25;;;;;;;-141.48;100.00;69781.59;5248245;28;20027;-58
2021/12/13 11:27:24;;;;;;;4.72;4.38;;;;;;;-141.48;100.00;69781.59;5248758;28;20384;-58
2021/12/13 11:29:54;;;;;;;6.03;5.72;;;;;;;-141.48;100.00;69781.59;5249062;28;20020;-58
2021/12/13 11:32:34;;;;;;;6.22;5.65;;;;;;;-141.48;100.00;69781.59;5248210;28;20423;-61
2021/12/13 11:35:21;;;;;;;6.13;5.72;;;;;;;-141.48;100.00;69781.59;5248253;28;20027;-58
2021/12/13 11:38:40;;;;;;;6.35;4.90;;;;;;;-141.48;100.00;69781.59;5248599;28;20032;-60
2021/12/13 11:41:37;;;;;;;5.57;5.18;;;;;;;-141.48;100.00;69781.59;5187607;28;20109;-55
2021/12/13 11:44:35;;;;;;;6.60;5.30;;;;;;;-141.48;100.00;69781.59;5248227;28;20023;-61
2021/12/13 11:47:34;;;;;;;4.55;4.15;;;;;;;-141.48;100.00;69781.59;5248359;28;20063;-59
2021/12/13 11:50:27;;;;;;;5.90;5.50;;;;;;;-141.48;100.00;69781.59;5248769;28;20031;-59
2021/12/13 11:53:34;;;;;;;5.25;4.85;;;;;;;-141.48;100.00;69781.59;5248628;28;20035;-58
2021/12/13 11:56:15;;;;;;;5.28;4.88;;;;;;;-141.48;100.00;69781.59;5248739;28;20440;-58
2021/12/13 11:59:19;;;;;;;4.78;4.47;;;;;;;-141.48;100.00;69781.59;5248730;28;20021;-58
2021/12/13 12:02:15;;;;;;;5.15;4.85;;;;;;;-141.48;100.00;69781.59;5248067;28;20107;-58
2021/12/13 12:05:07;;;;;;;5.57;5.13;;;;;;;-141.48;100.00;69781.59;5266328;28;20483;-58
2021/12/13 12:07:43;;;;;;;5.10;4.80;;;;;;;-141.48;100.00;69781.59;5248444;28;20158;-57